Time;durP1;ratioP1;P1;durP2;ratioP2;P2;SDS_P1;SDS_P2;PMS_P1;PMS_P2;Temp;Humidity;BMP_temperature;BMP_pressure;BME280_temperature;BME280_humidity;BME280_pressure;Samples;Min_cycle;Max_cycle;Signal;HPM_P1;HPM_P2
2020/12/09 00:01:26;;;;;;;;;;;;;;;-0.35;81.60;97734.53;1678397;85;25108;-84
2020/12/09 00:04:14;;;;;;;;;;;;;;;-0.35;81.60;97725.54;1655450;85;37246;-84
2020/12/09 00:07:01;;;;;;;;;;;;;;;-0.35;81.58;97730.68;1634337;86;27072;-84
2020/12/09 00:09:47;;;;;;;;;;;;;;;-0.35;81.58;97728.55;1594405;88;24425;-84
2020/12/09 00:12:35;;;;;;;;;;;;;;;-0.40;81.60;97719.73;1634844;87;20282;-83
2020/12/09 00:15:23;;;;;;;;;;;;;;;-0.44;81.59;97711.76;1618009;88;24981;-83
2020/12/09 00:18:14;;;;;;;;;;;;;;;-0.48;81.59;97721.73;1634947;86;22074;-84
2020/12/09 00:21:03;;;;;;;;;;;;;;;-0.43;81.57;97718.55;1613697;88;26260;-83
2020/12/09 00:23:49;;;;;;;;;;;;;;;-0.32;81.55;97717.70;1639874;86;24805;-83
2020/12/09 00:26:39;;;;;;;;;;;;;;;-0.30;81.58;97712.06;1650040;85;20396;-83
2020/12/09 00:29:27;;;;;;;;;;;;;;;-0.32;81.60;97715.56;1637970;86;24726;-83
2020/12/09 00:32:16;;;;;;;;;;;;;;;-0.37;81.61;97720.89;1639128;87;22429;-84
2020/12/09 00:35:04;;;;;;;;;;;;;;;-0.38;81.61;97719.69;1637023;86;26130;-83
2020/12/09 00:37:51;;;;;;;;;;;;;;;-0.40;81.62;97714.59;1637219;86;24476;-83
2020/12/09 00:40:42;;;;;;;;;;;;;;;-0.50;81.62;97711.98;1641848;86;20282;-83
2020/12/09 00:43:27;;;;;;;;;;;;;;;-0.62;81.62;97720.14;1665039;85;24820;-84
2020/12/09 00:46:14;;;;;;;;;;;;;;;-0.76;81.62;97721.10;1649218;86;22019;-84
2020/12/09 00:49:01;;;;;;;;;;;;;;;-0.87;81.59;97725.31;1651957;86;26305;-84
2020/12/09 00:51:35;;;;;;;;;;;;;;;-0.94;81.56;97727.72;1651321;86;25637;-83
2020/12/09 00:54:21;;;;;;;;;;;;;;;-0.95;81.53;97724.76;1634647;86;20269;-84
2020/12/09 00:57:07;;;;;;;;;;;;;;;-0.98;81.53;97714.14;1648936;86;24793;-84
2020/12/09 00:59:54;;;;;;;;;;;;;;;-0.96;81.50;97717.94;1699935;83;22220;-84
2020/12/09 01:02:41;;;;;;;;;;;;;;;-0.92;81.52;97723.35;1699953;83;26142;-84
2020/12/09 01:05:33;;;;;;;;;;;;;;;-0.86;81.52;97720.13;1678934;83;25414;-84
2020/12/09 01:08:20;;;;;;;;;;;;;;;-0.83;81.56;97719.64;1704538;83;20336;-84
2020/12/09 01:11:06;;;;;;;;;;;;;;;-0.85;81.60;97723.53;1703925;83;25223;-84
2020/12/09 01:13:53;;;;;;;;;;;;;;;-0.81;81.61;97728.95;1686304;83;22170;-84
2020/12/09 01:16:26;;;;;;;;;;;;;;;-0.85;81.64;97717.11;1670741;83;25146;-83
2020/12/09 01:19:13;;;;;;;;;;;;;;;-0.94;81.66;97716.17;1686255;83;24696;-84
2020/12/09 01:21:59;;;;;;;;;;;;;;;-0.97;81.67;97712.41;1695355;83;20575;-84
2020/12/09 01:24:45;;;;;;;;;;;;;;;-1.01;81.68;97714.70;1709740;83;25069;-84
2020/12/09 01:27:35;;;;;;;;;;;;;;;-1.02;81.68;97708.73;1709149;83;22338;-84
2020/12/09 01:30:22;;;;;;;;;;;;;;;-1.05;81.70;97714.42;1704098;83;26158;-84
2020/12/09 01:33:08;;;;;;;;;;;;;;;-1.07;81.70;97720.89;1709006;83;25601;-84
2020/12/09 01:35:55;;;;;;;;;;;;;;;-1.04;81.71;97717.39;1696061;83;20539;-84
2020/12/09 01:38:41;;;;;;;;;;;;;;;-1.05;81.74;97719.12;1702287;83;25123;-84
2020/12/09 01:41:28;;;;;;;;;;;;;;;-1.04;81.73;97718.67;1680845;83;21884;-84
2020/12/09 01:44:14;;;;;;;;;;;;;;;-1.04;81.76;97710.53;1696663;83;26115;-84
2020/12/09 01:47:00;;;;;;;;;;;;;;;-1.01;81.78;97712.13;1705922;83;25648;-84
2020/12/09 01:49:46;;;;;;;;;;;;;;;-1.02;81.81;97708.73;1706661;83;20185;-84
2020/12/09 01:52:34;;;;;;;;;;;;;;;-1.00;81.82;97704.38;1697190;83;24964;-84
2020/12/09 01:55:21;;;;;;;;;;;;;;;-0.92;81.83;97699.80;1706212;83;22213;-84
2020/12/09 01:58:07;;;;;;;;;;;;;;;-0.85;81.88;97694.00;1708235;83;26139;-83
2020/12/09 02:00:56;;;;;;;;;;;;;;;-0.82;81.91;97697.76;1668719;85;25496;-83
2020/12/09 02:03:42;;;;;;;;;;;;;;;-0.87;81.94;97694.48;1704062;83;20331;-84
2020/12/09 02:06:28;;;;;;;;;;;;;;;-0.97;81.99;97689.30;1701890;83;24970;-84
2020/12/09 02:09:15;;;;;;;;;;;;;;;-1.09;81.97;97700.84;1694829;83;22116;-84
2020/12/09 02:12:01;;;;;;;;;;;;;;;-1.18;81.99;97699.05;1696063;83;26136;-85
2020/12/09 02:14:47;;;;;;;;;;;;;;;-1.22;81.98;97697.05;1687987;83;24372;-84
2020/12/09 02:17:35;;;;;;;;;;;;;;;-1.22;81.97;97690.63;1691537;83;20741;-84
2020/12/09 02:20:22;;;;;;;;;;;;;;;-1.28;81.98;97687.83;1701955;83;25027;-84
2020/12/09 02:23:08;;;;;;;;;;;;;;;-1.36;81.97;97676.13;1700463;83;22142;-84
2020/12/09 02:25:55;;;;;;;;;;;;;;;-1.42;82.00;97677.66;1707596;83;26099;-84
2020/12/09 02:28:42;;;;;;;;;;;;;;;-1.44;81.98;97680.70;1704466;83;24606;-84
2020/12/09 02:31:29;;;;;;;;;;;;;;;-1.48;82.01;97681.27;1702658;83;20317;-84
2020/12/09 02:34:15;;;;;;;;;;;;;;;-1.48;82.01;97683.83;1696808;83;25815;-84
2020/12/09 02:37:03;;;;;;;;;;;;;;;-1.45;82.02;97684.16;1689569;83;22152;-84
2020/12/09 02:39:51;;;;;;;;;;;;;;;-1.38;82.02;97692.89;1698969;83;25999;-84
2020/12/09 02:42:38;;;;;;;;;;;;;;;-1.39;82.08;97685.23;1704889;83;24767;-85
2020/12/09 02:45:26;;;;;;;;;;;;;;;-1.43;82.10;97687.08;1698195;83;20269;-84
2020/12/09 02:48:13;;;;;;;;;;;;;;;-1.41;82.15;97684.44;1704861;83;24921;-84
2020/12/09 02:50:59;;;;;;;;;;;;;;;-1.41;82.16;97680.14;1697856;83;22181;-84
2020/12/09 02:53:51;;;;;;;;;;;;;;;-1.40;82.19;97683.55;1699093;83;26084;-85
2020/12/09 02:56:40;;;;;;;;;;;;;;;-1.38;82.19;97677.94;1701627;83;24899;-84
2020/12/09 02:59:27;;;;;;;;;;;;;;;-1.29;82.25;97682.30;1678006;83;20375;-84
2020/12/09 03:02:13;;;;;;;;;;;;;;;-1.29;82.26;97673.75;1698274;83;25088;-84
2020/12/09 03:05:00;;;;;;;;;;;;;;;-1.36;82.33;97679.98;1701840;83;22184;-84
2020/12/09 03:07:50;;;;;;;;;;;;;;;-1.43;82.34;97678.53;1690832;83;26151;-85
2020/12/09 03:10:36;;;;;;;;;;;;;;;-1.50;82.34;97675.34;1678668;83;24614;-85
2020/12/09 03:13:23;;;;;;;;;;;;;;;-1.49;82.35;97669.77;1692476;83;20340;-84
2020/12/09 03:16:10;;;;;;;;;;;;;;;-1.50;82.36;97671.48;1707036;83;24980;-84
2020/12/09 03:18:59;;;;;;;;;;;;;;;-1.52;82.40;97668.56;1701866;83;22159;-84
2020/12/09 03:21:45;;;;;;;;;;;;;;;-1.54;82.42;97671.66;1675319;83;26451;-84
2020/12/09 03:24:32;;;;;;;;;;;;;;;-1.55;82.42;97680.23;1694429;83;24577;-84
2020/12/09 03:27:19;;;;;;;;;;;;;;;-1.57;82.44;97683.28;1681419;83;20273;-84
2020/12/09 03:30:08;;;;;;;;;;;;;;;-1.57;82.46;97679.44;1696408;83;24972;-84
2020/12/09 03:32:54;;;;;;;;;;;;;;;-1.58;82.50;97673.94;1704165;83;22111;-85
2020/12/09 03:35:41;;;;;;;;;;;;;;;-1.54;82.52;97668.64;1697452;83;26184;-85
2020/12/09 03:38:27;;;;;;;;;;;;;;;-1.51;82.55;97673.66;1707213;83;24611;-85
2020/12/09 03:41:14;;;;;;;;;;;;;;;-1.44;82.56;97674.30;1706402;83;20280;-85
2020/12/09 03:44:01;;;;;;;;;;;;;;;-1.41;82.60;97672.45;1695995;83;24928;-84
2020/12/09 03:46:47;;;;;;;;;;;;;;;-1.41;82.64;97672.45;1700914;83;22135;-84
2020/12/09 03:49:34;;;;;;;;;;;;;;;-1.41;82.68;97681.42;1700352;83;27083;-84
2020/12/09 03:52:20;;;;;;;;;;;;;;;-1.43;82.69;97681.11;1703288;83;24610;-84
2020/12/09 03:55:06;;;;;;;;;;;;;;;-1.50;82.70;97672.77;1693625;83;20281;-84
2020/12/09 03:57:53;;;;;;;;;;;;;;;-1.52;82.73;97679.67;1700813;83;25183;-84
2020/12/09 04:00:40;;;;;;;;;;;;;;;-1.55;82.73;97679.79;1700034;83;22147;-84
2020/12/09 04:03:26;;;;;;;;;;;;;;;-1.57;82.73;97674.30;1706044;83;26192;-84
2020/12/09 04:06:12;;;;;;;;;;;;;;;-1.59;82.75;97666.68;1702908;83;25635;-84
2020/12/09 04:08:58;;;;;;;;;;;;;;;-1.59;82.75;97665.40;1699608;83;20493;-84
2020/12/09 04:11:45;;;;;;;;;;;;;;;-1.58;82.75;97661.11;1684766;83;25300;-84
2020/12/09 04:14:36;;;;;;;;;;;;;;;-1.58;82.76;97661.92;1702946;83;22148;-84
2020/12/09 04:17:22;;;;;;;;;;;;;;;-1.55;82.76;97669.97;1696959;83;27062;-84
2020/12/09 04:20:09;;;;;;;;;;;;;;;-1.54;82.80;97666.52;1705328;83;24608;-84
2020/12/09 04:22:55;;;;;;;;;;;;;;;-1.55;82.81;97659.71;1700212;83;20276;-84
2020/12/09 04:25:41;;;;;;;;;;;;;;;-1.53;82.83;97667.77;1702441;83;24797;-84
2020/12/09 04:28:27;;;;;;;;;;;;;;;-1.50;82.84;97669.36;1701920;83;23073;-84
2020/12/09 04:31:15;;;;;;;;;;;;;;;-1.48;82.87;97668.44;1703286;83;26342;-85
2020/12/09 04:34:02;;;;;;;;;;;;;;;-1.46;82.87;97676.90;1707340;83;24687;-84
2020/12/09 04:36:48;;;;;;;;;;;;;;;-1.40;82.91;97672.84;1704251;83;20289;-85
2020/12/09 04:39:36;;;;;;;;;;;;;;;-1.34;82.92;97676.48;1700496;83;25134;-85
2020/12/09 04:42:23;;;;;;;;;;;;;;;-1.33;82.94;97667.91;1695240;83;22961;-84
2020/12/09 04:45:09;;;;;;;;;;;;;;;-1.31;82.96;97666.58;1694265;83;26961;-84
2020/12/09 04:47:56;;;;;;;;;;;;;;;-1.36;82.98;97663.30;1696135;83;24601;-84
2020/12/09 04:50:43;;;;;;;;;;;;;;;-1.43;83.00;97664.42;1675883;83;20608;-84
2020/12/09 04:53:29;;;;;;;;;;;;;;;-1.48;83.00;97667.59;1703831;83;25077;-84
2020/12/09 04:56:16;;;;;;;;;;;;;;;-1.49;82.99;97666.76;1655275;83;22000;-84
2020/12/09 04:59:04;;;;;;;;;;;;;;;-1.51;82.97;97667.24;1660868;83;26872;-85
2020/12/09 05:01:51;;;;;;;;;;;;;;;-1.55;82.98;97661.83;1673352;83;24540;-84
2020/12/09 05:04:40;;;;;;;;;;;;;;;-1.54;82.98;97669.09;1696817;83;20285;-84
2020/12/09 05:07:26;;;;;;;;;;;;;;;-1.52;82.98;97668.13;1703450;83;24972;-84
2020/12/09 05:10:16;;;;;;;;;;;;;;;-1.57;83.00;97658.47;1668694;83;22919;-84
2020/12/09 05:13:03;;;;;;;;;;;;;;;-1.60;83.01;97659.88;1708645;83;26128;-83
2020/12/09 05:15:50;;;;;;;;;;;;;;;-1.60;83.00;97662.44;1701068;83;24651;-83
2020/12/09 05:18:39;;;;;;;;;;;;;;;-1.60;83.01;97663.72;1675600;83;20222;-84
2020/12/09 05:21:26;;;;;;;;;;;;;;;-1.62;83.00;97662.92;1703351;83;24879;-83
2020/12/09 05:24:12;;;;;;;;;;;;;;;-1.59;83.01;97662.83;1693981;83;22101;-84
2020/12/09 05:26:58;;;;;;;;;;;;;;;-1.58;83.01;97664.95;1707173;83;27160;-83
2020/12/09 05:29:45;;;;;;;;;;;;;;;-1.56;83.03;97663.16;1704034;83;24736;-83
2020/12/09 05:32:32;;;;;;;;;;;;;;;-1.50;83.05;97668.08;1687995;83;20666;-84
2020/12/09 05:35:21;;;;;;;;;;;;;;;-1.44;83.07;97670.00;1699894;83;25135;-84
2020/12/09 05:38:08;;;;;;;;;;;;;;;-1.31;83.08;97674.27;1679305;83;21929;-84
2020/12/09 05:40:54;;;;;;;;;;;;;;;-1.25;83.09;97690.71;1698873;83;27189;-84
2020/12/09 05:43:41;;;;;;;;;;;;;;;-1.22;83.12;97693.19;1699258;83;24574;-84
2020/12/09 05:46:27;;;;;;;;;;;;;;;-1.21;83.15;97691.02;1699312;83;20464;-84
2020/12/09 05:49:14;;;;;;;;;;;;;;;-1.15;83.17;97693.82;1700715;83;25073;-83
2020/12/09 05:52:00;;;;;;;;;;;;;;;-1.12;83.20;97696.27;1672130;83;22167;-84
2020/12/09 05:54:47;;;;;;;;;;;;;;;-1.09;83.21;97698.27;1707552;83;26180;-84
2020/12/09 05:57:34;;;;;;;;;;;;;;;-1.12;83.21;97694.98;1700365;83;24715;-84
2020/12/09 06:00:20;;;;;;;;;;;;;;;-1.13;83.22;97699.28;1693051;83;20265;-84
2020/12/09 06:03:07;;;;;;;;;;;;;;;-1.12;83.22;97702.24;1695330;83;25158;-83
2020/12/09 06:05:53;;;;;;;;;;;;;;;-1.14;83.22;97698.04;1697615;83;21490;-83
2020/12/09 06:08:40;;;;;;;;;;;;;;;-1.16;83.20;97698.11;1699403;83;26897;-84
2020/12/09 06:11:26;;;;;;;;;;;;;;;-1.13;83.21;97699.28;1708273;83;24733;-84
2020/12/09 06:14:13;;;;;;;;;;;;;;;-1.14;83.18;97705.73;1674910;83;20554;-84
2020/12/09 06:17:00;;;;;;;;;;;;;;;-1.15;83.18;97704.09;1704302;83;25075;-84
2020/12/09 06:19:46;;;;;;;;;;;;;;;-1.15;83.17;97714.36;1705281;83;22183;-85
2020/12/09 06:22:33;;;;;;;;;;;;;;;-1.10;83.16;97720.17;1702548;83;27125;-85
2020/12/09 06:25:20;;;;;;;;;;;;;;;-1.06;83.17;97721.29;1667138;84;26068;-85
2020/12/09 06:28:07;;;;;;;;;;;;;;;-1.06;83.18;97726.42;1661128;84;20680;-85
2020/12/09 06:30:53;;;;;;;;;;;;;;;-0.96;83.20;97726.93;1687754;84;24872;-83
2020/12/09 06:33:40;;;;;;;;;;;;;;;-0.87;83.17;97735.14;1660730;84;22152;-85
2020/12/09 06:36:28;;;;;;;;;;;;;;;-0.83;83.20;97739.74;1684608;84;26138;-83
2020/12/09 06:39:18;;;;;;;;;;;;;;;-0.91;83.22;97739.16;1612094;86;25627;-85
2020/12/09 06:42:05;;;;;;;;;;;;;;;-0.95;83.24;97741.45;1615846;87;20272;-86
2020/12/09 06:44:54;;;;;;;;;;;;;;;-0.96;83.23;97741.05;1648885;85;24893;-85
2020/12/09 06:47:43;;;;;;;;;;;;;;;-0.91;83.22;97739.16;1651310;86;22143;-85
2020/12/09 06:50:31;;;;;;;;;;;;;;;-0.89;83.19;97733.53;1650547;86;26316;-85
2020/12/09 06:53:20;;;;;;;;;;;;;;;-0.86;83.20;97734.25;1648093;86;24594;-84
2020/12/09 06:56:07;;;;;;;;;;;;;;;-0.88;83.21;97733.48;1646959;86;20271;-85
2020/12/09 06:58:54;;;;;;;;;;;;;;;-0.94;83.20;97738.00;1628744;86;24875;-84
2020/12/09 07:01:42;;;;;;;;;;;;;;;-0.98;83.21;97740.26;1628742;87;21895;-84
2020/12/09 07:04:29;;;;;;;;;;;;;;;-0.98;83.17;97738.97;1633586;86;26346;-83
2020/12/09 07:07:18;;;;;;;;;;;;;;;-1.01;83.17;97733.96;1669577;84;24565;-83
2020/12/09 07:10:08;;;;;;;;;;;;;;;-1.05;83.14;97740.94;1633296;86;20640;-83
2020/12/09 07:12:55;;;;;;;;;;;;;;;-1.03;83.14;97741.70;1622468;87;24882;-83
2020/12/09 07:15:43;;;;;;;;;;;;;;;-1.06;83.14;97740.98;1641737;86;23098;-83
2020/12/09 07:18:32;;;;;;;;;;;;;;;-1.12;83.13;97744.60;1635888;86;26173;-83
2020/12/09 07:21:19;;;;;;;;;;;;;;;-1.18;83.12;97745.25;1619721;86;24577;-84
2020/12/09 07:24:06;;;;;;;;;;;;;;;-1.15;83.10;97750.30;1677612;84;20380;-85
2020/12/09 07:26:54;;;;;;;;;;;;;;;-1.07;83.09;97744.44;1609685;88;25144;-84
2020/12/09 07:29:41;;;;;;;;;;;;;;;-1.17;83.09;97749.50;1601264;88;22469;-84
2020/12/09 07:32:27;;;;;;;;;;;;;;;-1.28;83.13;97753.27;1601430;89;26161;-84
2020/12/09 07:35:15;;;;;;;;;;;;;;;-1.32;83.10;97758.13;1602164;89;24540;-84
2020/12/09 07:38:01;;;;;;;;;;;;;;;-1.35;83.07;97763.34;1611595;89;20476;-84
2020/12/09 07:40:47;;;;;;;;;;;;;;;-1.39;83.05;97762.22;1613494;88;24921;-84
2020/12/09 07:43:34;;;;;;;;;;;;;;;-1.42;83.06;97763.14;1607997;89;22173;-84
2020/12/09 07:46:20;;;;;;;;;;;;;;;-1.40;83.05;97769.52;1643260;86;25932;-84
2020/12/09 07:49:07;;;;;;;;;;;;;;;-1.43;83.02;97776.05;1609466;88;24626;-84
2020/12/09 07:52:00;;;;;;;;;;;;;;;-1.41;83.05;97785.80;1599875;88;20555;-85
2020/12/09 07:54:51;;;;;;;;;;;;;;;-1.41;83.05;97781.50;1613089;87;25291;-84
2020/12/09 07:57:38;;;;;;;;;;;;;;;-1.30;83.05;97778.58;1601976;89;23044;-84
2020/12/09 08:00:29;;;;;;;;;;;;;;;-1.23;83.06;97781.79;1603354;88;26374;-84
2020/12/09 08:03:16;;;;;;;;;;;;;;;-1.19;83.10;97787.20;1646360;86;25716;-83
2020/12/09 08:06:05;;;;;;;;;;;;;;;-1.25;83.11;97783.11;1636466;86;20274;-83
2020/12/09 08:08:52;;;;;;;;;;;;;;;-1.24;83.14;97792.94;1643579;86;25123;-83
2020/12/09 08:11:44;;;;;;;;;;;;;;;-1.25;83.14;97790.81;1646079;86;23024;-83
2020/12/09 08:14:32;;;;;;;;;;;;;;;-1.20;83.14;97795.34;1648446;86;26117;-83
2020/12/09 08:17:08;;;;;;;;;;;;;;;-1.15;83.16;97793.94;1607661;88;24700;-84
2020/12/09 08:20:01;;;;;;;;;;;;;;;-1.12;83.18;97788.69;1598223;89;20371;-83
2020/12/09 08:22:50;;;;;;;;;;;;;;;-1.10;83.17;97778.77;1601291;89;24811;-83
2020/12/09 08:25:37;;;;;;;;;;;;;;;-1.07;83.21;97792.78;1650894;83;22243;-82
2020/12/09 08:28:24;;;;;;;;;;;;;;;-0.97;83.22;97797.98;1675980;83;26855;-84
2020/12/09 08:31:15;;;;;;;;;;;;;;;-0.98;83.26;97787.31;1709592;83;25322;-83
2020/12/09 08:34:03;;;;;;;;;;;;;;;-0.97;83.27;97785.59;1697421;83;20328;-83
2020/12/09 08:36:50;;;;;;;;;;;;;;;-0.98;83.27;97786.48;1667528;83;24683;-83
2020/12/09 08:39:37;;;;;;;;;;;;;;;-0.94;83.29;97792.77;1688170;83;22617;-83
2020/12/09 08:42:24;;;;;;;;;;;;;;;-0.86;83.29;97792.48;1707848;83;26123;-83
2020/12/09 08:45:10;;;;;;;;;;;;;;;-0.80;83.29;97800.42;1689875;83;24576;-83
2020/12/09 08:48:02;;;;;;;;;;;;;;;-0.77;83.32;97808.88;1698215;83;20280;-82
2020/12/09 08:50:49;;;;;;;;;;;;;;;-0.75;83.31;97810.93;1715642;83;25798;-82
2020/12/09 08:53:36;;;;;;;;;;;;;;;-0.74;83.35;97811.33;1709649;83;23034;-82
2020/12/09 08:56:22;;;;;;;;;;;;;;;-0.73;83.35;97810.45;1701225;83;26320;-82
2020/12/09 08:58:57;;;;;;;;;;;;;;;-0.69;83.37;97818.88;1710590;82;24606;-83
2020/12/09 09:01:44;;;;;;;;;;;;;;;-0.66;83.37;97814.48;1697350;83;20283;-83
2020/12/09 09:05:01;;;;;;;;;;;;;;;-0.70;83.39;97809.48;1677725;83;21334;-82
2020/12/09 09:07:50;;;;;;;;;;;;;;;-0.73;83.40;97809.60;1704785;83;22271;-83
2020/12/09 09:10:36;;;;;;;;;;;;;;;-0.77;83.39;97806.75;1700412;83;26141;-83
2020/12/09 09:13:26;;;;;;;;;;;;;;;-0.78;83.37;97807.20;1690343;83;24619;-83
2020/12/09 09:16:13;;;;;;;;;;;;;;;-0.85;83.39;97806.56;1710180;83;20702;-83
2020/12/09 09:19:07;;;;;;;;;;;;;;;-0.89;83.38;97800.31;1664598;83;25031;-83
2020/12/09 09:21:55;;;;;;;;;;;;;;;-0.85;83.35;97801.87;1694380;83;22145;-83
2020/12/09 09:24:41;;;;;;;;;;;;;;;-0.75;83.37;97796.80;1694463;83;26289;-83
2020/12/09 09:27:28;;;;;;;;;;;;;;;-0.71;83.37;97804.78;1692929;83;24818;-83
2020/12/09 09:30:16;;;;;;;;;;;;;;;-0.61;83.38;97799.74;1689685;83;20301;-83
2020/12/09 09:33:03;;;;;;;;;;;;;;;-0.56;83.42;97802.98;1697039;83;25158;-83
2020/12/09 09:35:50;;;;;;;;;;;;;;;-0.57;83.42;97803.88;1689182;83;22103;-83
2020/12/09 09:38:37;;;;;;;;;;;;;;;-0.57;83.47;97805.16;1677814;84;26079;-83
2020/12/09 09:41:23;;;;;;;;;;;;;;;-0.59;83.46;97803.08;1664425;85;25457;-83
2020/12/09 09:44:13;;;;;;;;;;;;;;;-0.60;83.48;97802.67;1643377;86;20528;-83
2020/12/09 09:47:07;;;;;;;;;;;;;;;-0.56;83.48;97799.58;1641228;86;25002;-83
2020/12/09 09:49:53;;;;;;;;;;;;;;;-0.54;83.49;97800.34;1615579;87;22887;-83
2020/12/09 09:52:40;;;;;;;;;;;;;;;-0.51;83.51;97797.23;1634768;86;26141;-83
2020/12/09 09:55:27;;;;;;;;;;;;;;;-0.50;83.52;97787.80;1643995;86;25461;-84
2020/12/09 09:58:17;;;;;;;;;;;;;;;-0.45;83.52;97789.30;1641636;86;20329;-83
2020/12/09 10:01:04;;;;;;;;;;;;;;;-0.42;83.53;97789.17;1688470;83;25059;-83
2020/12/09 10:03:51;;;;;;;;;;;;;;;-0.37;83.55;97785.15;1692606;83;21921;-84
2020/12/09 10:06:38;;;;;;;;;;;;;;;-0.34;83.55;97784.22;1686667;83;26122;-84
2020/12/09 10:09:20;;;;;;;;;;;;;;;-0.26;83.57;97786.03;1688104;83;24645;-84
2020/12/09 10:12:09;;;;;;;;;;;;;;;-0.24;83.59;97780.41;1675182;84;20269;-85
2020/12/09 10:14:55;;;;;;;;;;;;;;;-0.21;83.59;97782.40;1696796;84;25772;-84
2020/12/09 10:17:46;;;;;;;;;;;;;;;-0.14;83.61;97786.88;1694830;83;22150;-83
2020/12/09 10:20:37;;;;;;;;;;;;;;;-0.14;83.64;97772.28;1638422;86;26375;-83
2020/12/09 10:23:24;;;;;;;;;;;;;;;-0.16;83.65;97780.94;1633659;86;24689;-83
2020/12/09 10:26:11;;;;;;;;;;;;;;;-0.22;83.67;97770.91;1649236;86;20279;-83
2020/12/09 10:29:00;;;;;;;;;;;;;;;-0.28;83.66;97768.13;1647035;87;24913;-83
2020/12/09 10:31:46;;;;;;;;;;;;;;;-0.33;83.65;97765.33;1645812;87;22258;-83
2020/12/09 10:34:33;;;;;;;;;;;;;;;-0.38;83.64;97767.23;1680034;84;27181;-84
2020/12/09 10:37:22;;;;;;;;;;;;;;;-0.44;83.64;97765.73;1641174;84;24407;-83
2020/12/09 10:40:09;;;;;;;;;;;;;;;-0.50;83.63;97759.08;1646374;87;20479;-84
2020/12/09 10:42:59;;;;;;;;;;;;;;;-0.50;83.60;97764.22;1647617;87;24916;-84
2020/12/09 10:45:46;;;;;;;;;;;;;;;-0.45;83.59;97762.31;1595468;87;23572;-83
2020/12/09 10:48:34;;;;;;;;;;;;;;;-0.39;83.59;97762.54;1636342;86;26160;-84
2020/12/09 10:51:21;;;;;;;;;;;;;;;-0.31;83.59;97766.09;1648013;87;24880;-84
2020/12/09 10:54:11;;;;;;;;;;;;;;;-0.18;83.60;97768.61;1652411;85;20349;-83
2020/12/09 10:56:57;;;;;;;;;;;;;;;-0.13;83.63;97768.83;1645968;87;25077;-83
2020/12/09 10:59:48;;;;;;;;;;;;;;;-0.11;83.66;97767.49;1648107;85;21623;-83
2020/12/09 11:02:36;;;;;;;;;;;;;;;-0.12;83.68;97759.38;1646990;87;26154;-83
2020/12/09 11:05:26;;;;;;;;;;;;;;;-0.15;83.70;97756.91;1648855;86;24699;-83
2020/12/09 11:08:13;;;;;;;;;;;;;;;-0.17;83.71;97769.00;1646712;87;20358;-83
2020/12/09 11:10:59;;;;;;;;;;;;;;;-0.15;83.70;97764.62;1641045;87;25674;-83
2020/12/09 11:13:45;;;;;;;;;;;;;;;-0.14;83.70;97762.45;1677869;84;22328;-83
2020/12/09 11:16:32;;;;;;;;;;;;;;;-0.20;83.71;97757.09;1673831;84;26159;-83
2020/12/09 11:19:19;;;;;;;;;;;;;;;-0.24;83.71;97750.84;1672208;84;24896;-83
2020/12/09 11:22:06;;;;;;;;;;;;;;;-0.27;83.69;97759.97;1678394;84;20521;-83
2020/12/09 11:24:53;;;;;;;;;;;;;;;-0.33;83.69;97749.91;1663207;84;24772;-83
2020/12/09 11:27:40;;;;;;;;;;;;;;;-0.31;83.67;97760.50;1694206;83;22969;-83
2020/12/09 11:30:27;;;;;;;;;;;;;;;-0.37;83.68;97755.59;1707692;83;26118;-83
2020/12/09 11:33:14;;;;;;;;;;;;;;;-0.37;83.68;97755.59;1686427;83;24408;-84
2020/12/09 11:36:01;;;;;;;;;;;;;;;-0.34;83.66;97750.80;1685810;83;20273;-84
2020/12/09 11:38:47;;;;;;;;;;;;;;;-0.32;83.66;97749.83;1693931;83;24736;-84
2020/12/09 11:41:34;;;;;;;;;;;;;;;-0.30;83.67;97744.64;1693210;83;22161;-83
2020/12/09 11:44:20;;;;;;;;;;;;;;;-0.35;83.66;97737.11;1639135;87;26088;-84
2020/12/09 11:47:09;;;;;;;;;;;;;;;-0.34;83.70;97743.09;1649725;86;24697;-84
2020/12/09 11:49:57;;;;;;;;;;;;;;;-0.37;83.73;97750.89;1659340;85;20390;-83
2020/12/09 11:52:43;;;;;;;;;;;;;;;-0.42;83.72;97742.91;1664519;85;24926;-83
2020/12/09 11:55:30;;;;;;;;;;;;;;;-0.42;83.72;97732.63;1695591;83;22195;-83
2020/12/09 11:58:16;;;;;;;;;;;;;;;-0.44;83.74;97734.89;1702247;83;26134;-83
2020/12/09 12:01:03;;;;;;;;;;;;;;;-0.42;83.73;97744.64;1694682;83;24841;-84
2020/12/09 12:03:50;;;;;;;;;;;;;;;-0.39;83.75;97739.41;1696444;83;20303;-84
2020/12/09 12:06:37;;;;;;;;;;;;;;;-0.38;83.74;97727.39;1700075;83;25825;-83
2020/12/09 12:09:23;;;;;;;;;;;;;;;-0.37;83.76;97729.05;1692502;83;22705;-84
2020/12/09 12:12:10;;;;;;;;;;;;;;;-0.29;83.78;97732.18;1691215;83;25987;-84
2020/12/09 12:14:56;;;;;;;;;;;;;;;-0.25;83.79;97733.28;1706613;83;24881;-84
2020/12/09 12:17:42;;;;;;;;;;;;;;;-0.19;83.80;97729.20;1703030;83;20217;-84
2020/12/09 12:20:28;;;;;;;;;;;;;;;-0.14;83.82;97731.59;1701942;83;25829;-84
2020/12/09 12:23:15;;;;;;;;;;;;;;;-0.12;83.85;97731.09;1706012;83;22117;-85
2020/12/09 12:26:02;;;;;;;;;;;;;;;-0.16;83.88;97728.23;1705754;83;26144;-84
2020/12/09 12:28:50;;;;;;;;;;;;;;;-0.15;83.88;97732.48;1695527;83;24606;-84
2020/12/09 12:31:36;;;;;;;;;;;;;;;-0.13;83.89;97737.13;1693651;83;20294;-84
2020/12/09 12:34:28;;;;;;;;;;;;;;;-0.08;83.88;97734.77;1705400;83;25125;-84
2020/12/09 12:37:14;;;;;;;;;;;;;;;-0.04;83.88;97743.19;1699870;83;22159;-84
2020/12/09 12:40:02;;;;;;;;;;;;;;;0.03;83.89;97743.35;1696815;83;26022;-84
2020/12/09 12:42:49;;;;;;;;;;;;;;;0.01;83.90;97738.70;1694597;83;24455;-84
2020/12/09 12:45:36;;;;;;;;;;;;;;;-0.08;83.91;97735.22;1698084;83;20277;-84
2020/12/09 12:48:22;;;;;;;;;;;;;;;-0.14;83.92;97742.72;1669889;83;25362;-84
2020/12/09 12:51:09;;;;;;;;;;;;;;;-0.22;83.91;97736.20;1707880;83;23066;-84
2020/12/09 12:53:55;;;;;;;;;;;;;;;-0.29;83.89;97736.03;1673204;83;26992;-85
2020/12/09 12:56:41;;;;;;;;;;;;;;;-0.33;83.87;97738.34;1689177;83;24615;-84
2020/12/09 12:59:28;;;;;;;;;;;;;;;-0.34;83.85;97740.52;1702933;83;20449;-84
2020/12/09 13:02:15;;;;;;;;;;;;;;;-0.30;83.82;97732.63;1688049;83;25049;-84
2020/12/09 13:05:02;;;;;;;;;;;;;;;-0.33;83.84;97730.63;1704539;83;23619;-84
2020/12/09 13:07:54;;;;;;;;;;;;;;;-0.39;83.84;97726.55;1701873;83;26162;-84
2020/12/09 13:10:40;;;;;;;;;;;;;;;-0.44;83.84;97726.70;1701577;83;24617;-84
2020/12/09 13:13:15;;;;;;;;;;;;;;;-0.47;83.83;97721.69;1678059;83;20312;-84
2020/12/09 13:16:02;;;;;;;;;;;;;;;-0.48;83.84;97726.44;1698490;83;25063;-84
2020/12/09 13:18:49;;;;;;;;;;;;;;;-0.48;83.83;97724.31;1698307;83;22116;-84
2020/12/09 13:21:36;;;;;;;;;;;;;;;-0.49;83.82;97727.32;1705408;83;26124;-83
2020/12/09 13:24:23;;;;;;;;;;;;;;;-0.50;83.84;97723.10;1685604;83;24696;-83
2020/12/09 13:27:09;;;;;;;;;;;;;;;-0.53;83.85;97721.91;1688615;83;20569;-83
2020/12/09 13:29:56;;;;;;;;;;;;;;;-0.55;83.87;97722.44;1703855;83;25774;-83
2020/12/09 13:32:42;;;;;;;;;;;;;;;-0.53;83.87;97724.48;1701201;83;23117;-84
2020/12/09 13:35:29;;;;;;;;;;;;;;;-0.53;83.88;97724.48;1701743;83;26197;-83
2020/12/09 13:38:15;;;;;;;;;;;;;;;-0.55;83.89;97736.57;1643330;85;25630;-85
2020/12/09 13:41:02;;;;;;;;;;;;;;;-0.51;83.90;97738.13;1698082;83;20405;-83
2020/12/09 13:43:49;;;;;;;;;;;;;;;-0.48;83.91;97734.14;1705265;83;25956;-83
2020/12/09 13:46:36;;;;;;;;;;;;;;;-0.48;83.93;97725.15;1697000;83;21887;-85
2020/12/09 13:49:22;;;;;;;;;;;;;;;-0.50;83.96;97734.67;1687030;83;26103;-85
2020/12/09 13:52:10;;;;;;;;;;;;;;;-0.49;83.99;97735.48;1709307;83;24686;-84
2020/12/09 13:54:56;;;;;;;;;;;;;;;-0.50;83.99;97733.38;1704123;83;20372;-84
2020/12/09 13:57:43;;;;;;;;;;;;;;;-0.52;84.01;97731.30;1709039;83;25050;-86
2020/12/09 14:00:30;;;;;;;;;;;;;;;-0.55;84.01;97739.14;1705327;83;22235;-83
2020/12/09 14:03:19;;;;;;;;;;;;;;;-0.58;84.04;97742.25;1686868;83;26206;-83
2020/12/09 14:06:06;;;;;;;;;;;;;;;-0.64;84.05;97737.33;1676332;83;24416;-85
2020/12/09 14:08:53;;;;;;;;;;;;;;;-0.64;84.06;97734.77;1684108;83;20411;-84
2020/12/09 14:11:39;;;;;;;;;;;;;;;-0.61;84.05;97729.09;1704365;83;24054;-84
2020/12/09 14:14:27;;;;;;;;;;;;;;;-0.57;84.05;97736.22;1700357;83;22157;-84
2020/12/09 14:17:13;;;;;;;;;;;;;;;-0.59;84.09;97729.84;1711684;83;26108;-84
2020/12/09 14:20:05;;;;;;;;;;;;;;;-0.55;84.10;97735.73;1711727;83;24623;-84
2020/12/09 14:22:49;;;;;;;;;;;;;;;-0.54;84.11;97730.52;1697348;83;20360;-84
2020/12/09 14:25:39;;;;;;;;;;;;;;;-0.59;84.14;97736.27;1680618;84;24873;-84
2020/12/09 14:28:28;;;;;;;;;;;;;;;-0.60;84.15;97736.34;1703214;83;21459;-84
2020/12/09 14:31:14;;;;;;;;;;;;;;;-0.63;84.16;97736.00;1711038;83;27036;-84